sensor_id;sensor_type;location;lat;lon;timestamp;temperature;humidity
14099;DHT22;7126;48.458;7.930;2022-12-07T00:01:35;6.00;99.90
14099;DHT22;7126;48.458;7.930;2022-12-07T00:04:02;6.00;99.90
14099;DHT22;7126;48.458;7.930;2022-12-07T00:06:39;5.90;99.90
14099;DHT22;7126;48.458;7.930;2022-12-07T00:09:06;5.90;99.90
14099;DHT22;7126;48.458;7.930;2022-12-07T00:11:33;5.90;99.90
14099;DHT22;7126;48.458;7.930;2022-12-07T00:14:01;5.80;99.90
14099;DHT22;7126;48.458;7.930;2022-12-07T00:16:30;5.90;99.90
14099;DHT22;7126;48.458;7.930;2022-12-07T00:18:56;5.90;99.90
14099;DHT22;7126;48.458;7.930;2022-12-07T00:21:24;5.90;99.90
14099;DHT22;7126;48.458;7.930;2022-12-07T00:23:51;5.90;99.90
14099;DHT22;7126;48.458;7.930;2022-12-07T00:26:20;5.80;99.90
14099;DHT22;7126;48.458;7.930;2022-12-07T00:28:50;5.80;99.90
14099;DHT22;7126;48.458;7.930;2022-12-07T00:31:18;5.80;99.90
14099;DHT22;7126;48.458;7.930;2022-12-07T00:33:45;5.90;99.90
14099;DHT22;7126;48.458;7.930;2022-12-07T00:36:13;5.90;99.90
14099;DHT22;7126;48.458;7.930;2022-12-07T00:38:39;5.80;99.90
14099;DHT22;7126;48.458;7.930;2022-12-07T00:41:26;5.70;99.90
14099;DHT22;7126;48.458;7.930;2022-12-07T00:43:52;5.60;99.90
14099;DHT22;7126;48.458;7.930;2022-12-07T00:46:19;5.60;99.90
14099;DHT22;7126;48.458;7.930;2022-12-07T00:48:45;5.50;99.90
14099;DHT22;7126;48.458;7.930;2022-12-07T00:51:12;5.50;99.90
14099;DHT22;7126;48.458;7.930;2022-12-07T00:53:38;5.50;99.90
14099;DHT22;7126;48.458;7.930;2022-12-07T00:56:12;5.50;99.90
14099;DHT22;7126;48.458;7.930;2022-12-07T00:58:38;5.50;99.90
14099;DHT22;7126;48.458;7.930;2022-12-07T01:01:06;5.60;99.90
14099;DHT22;7126;48.458;7.930;2022-12-07T01:03:32;5.70;99.90
14099;DHT22;7126;48.458;7.930;2022-12-07T01:05:57;5.70;99.90
14099;DHT22;7126;48.458;7.930;2022-12-07T01:08:24;5.70;99.90
14099;DHT22;7126;48.458;7.930;2022-12-07T01:11:04;5.70;99.90
14099;DHT22;7126;48.458;7.930;2022-12-07T01:13:31;5.60;99.90
14099;DHT22;7126;48.458;7.930;2022-12-07T01:16:02;5.60;99.90
14099;DHT22;7126;48.458;7.930;2022-12-07T01:18:29;5.60;99.90
14099;DHT22;7126;48.458;7.930;2022-12-07T01:21:00;5.60;99.90
14099;DHT22;7126;48.458;7.930;2022-12-07T01:23:26;5.60;99.90
14099;DHT22;7126;48.458;7.930;2022-12-07T01:25:59;5.50;99.90
14099;DHT22;7126;48.458;7.930;2022-12-07T01:28:25;5.40;99.90
14099;DHT22;7126;48.458;7.930;2022-12-07T01:31:06;5.50;99.90
14099;DHT22;7126;48.458;7.930;2022-12-07T01:33:34;5.50;99.90
14099;DHT22;7126;48.458;7.930;2022-12-07T01:36:12;5.50;99.90
14099;DHT22;7126;48.458;7.930;2022-12-07T01:38:38;5.50;99.90
14099;DHT22;7126;48.458;7.930;2022-12-07T01:41:04;5.50;99.90
14099;DHT22;7126;48.458;7.930;2022-12-07T01:43:31;5.50;99.90
14099;DHT22;7126;48.458;7.930;2022-12-07T01:45:58;5.40;99.90
14099;DHT22;7126;48.458;7.930;2022-12-07T01:48:38;5.50;99.90
14099;DHT22;7126;48.458;7.930;2022-12-07T01:51:08;5.50;99.90
14099;DHT22;7126;48.458;7.930;2022-12-07T01:53:37;5.50;99.90
14099;DHT22;7126;48.458;7.930;2022-12-07T01:56:05;5.40;99.90
14099;DHT22;7126;48.458;7.930;2022-12-07T01:58:33;5.40;99.90
14099;DHT22;7126;48.458;7.930;2022-12-07T02:01:00;5.40;99.90
14099;DHT22;7126;48.458;7.930;2022-12-07T02:03:33;5.40;99.90
14099;DHT22;7126;48.458;7.930;2022-12-07T02:06:00;5.50;99.90
14099;DHT22;7126;48.458;7.930;2022-12-07T02:08:26;5.40;99.90
14099;DHT22;7126;48.458;7.930;2022-12-07T02:10:51;5.40;99.90
14099;DHT22;7126;48.458;7.930;2022-12-07T02:13:22;5.40;99.90
14099;DHT22;7126;48.458;7.930;2022-12-07T02:21:51;5.30;99.90
14099;DHT22;7126;48.458;7.930;2022-12-07T02:29:23;5.40;99.90
14099;DHT22;7126;48.458;7.930;2022-12-07T02:32:23;5.40;99.90
14099;DHT22;7126;48.458;7.930;2022-12-07T02:34:59;5.40;99.90
14099;DHT22;7126;48.458;7.930;2022-12-07T02:40:00;5.30;99.90
14099;DHT22;7126;48.458;7.930;2022-12-07T02:42:32;5.30;99.90
14099;DHT22;7126;48.458;7.930;2022-12-07T02:45:00;5.30;99.90
14099;DHT22;7126;48.458;7.930;2022-12-07T02:47:27;5.30;99.90
14099;DHT22;7126;48.458;7.930;2022-12-07T02:49:54;5.30;99.90
14099;DHT22;7126;48.458;7.930;2022-12-07T02:52:20;5.20;99.90
14099;DHT22;7126;48.458;7.930;2022-12-07T02:54:46;5.20;99.90
14099;DHT22;7126;48.458;7.930;2022-12-07T02:57:18;5.20;99.90
14099;DHT22;7126;48.458;7.930;2022-12-07T03:00:08;5.20;99.90
14099;DHT22;7126;48.458;7.930;2022-12-07T03:02:46;5.20;99.90
14099;DHT22;7126;48.458;7.930;2022-12-07T03:10:54;5.30;99.90
14099;DHT22;7126;48.458;7.930;2022-12-07T03:13:47;5.40;99.90
14099;DHT22;7126;48.458;7.930;2022-12-07T03:16:27;5.50;99.90
14099;DHT22;7126;48.458;7.930;2022-12-07T03:19:00;5.50;99.90
14099;DHT22;7126;48.458;7.930;2022-12-07T03:21:35;5.50;99.90
14099;DHT22;7126;48.458;7.930;2022-12-07T03:24:07;5.50;99.90
14099;DHT22;7126;48.458;7.930;2022-12-07T03:26:43;5.50;99.90
14099;DHT22;7126;48.458;7.930;2022-12-07T03:29:17;5.50;99.90
14099;DHT22;7126;48.458;7.930;2022-12-07T03:31:48;5.40;99.90
14099;DHT22;7126;48.458;7.930;2022-12-07T03:34:21;5.30;99.90
14099;DHT22;7126;48.458;7.930;2022-12-07T03:37:10;5.20;99.90
14099;DHT22;7126;48.458;7.930;2022-12-07T03:39:41;5.10;99.90
14099;DHT22;7126;48.458;7.930;2022-12-07T03:42:10;5.10;99.90
14099;DHT22;7126;48.458;7.930;2022-12-07T03:44:37;5.00;99.90
14099;DHT22;7126;48.458;7.930;2022-12-07T03:47:21;4.90;99.90
14099;DHT22;7126;48.458;7.930;2022-12-07T03:57:36;4.80;99.90
14099;DHT22;7126;48.458;7.930;2022-12-07T04:00:04;4.70;99.90
14099;DHT22;7126;48.458;7.930;2022-12-07T04:02:31;4.70;99.90
14099;DHT22;7126;48.458;7.930;2022-12-07T04:04:57;4.60;99.90
14099;DHT22;7126;48.458;7.930;2022-12-07T04:07:23;4.60;99.90
14099;DHT22;7126;48.458;7.930;2022-12-07T04:09:48;4.60;99.90
14099;DHT22;7126;48.458;7.930;2022-12-07T04:12:14;4.50;99.90
14099;DHT22;7126;48.458;7.930;2022-12-07T04:14:39;4.50;99.90
14099;DHT22;7126;48.458;7.930;2022-12-07T04:17:05;4.60;99.90
14099;DHT22;7126;48.458;7.930;2022-12-07T04:19:32;4.60;99.90
14099;DHT22;7126;48.458;7.930;2022-12-07T04:22:00;4.70;99.90
14099;DHT22;7126;48.458;7.930;2022-12-07T04:24:26;4.80;99.90
14099;DHT22;7126;48.458;7.930;2022-12-07T04:26:52;4.70;99.90
14099;DHT22;7126;48.458;7.930;2022-12-07T04:29:18;4.50;99.90
14099;DHT22;7126;48.458;7.930;2022-12-07T04:31:44;4.40;99.90
14099;DHT22;7126;48.458;7.930;2022-12-07T04:34:11;4.40;99.90
14099;DHT22;7126;48.458;7.930;2022-12-07T04:36:37;4.30;99.90
14099;DHT22;7126;48.458;7.930;2022-12-07T04:39:03;4.40;99.90
14099;DHT22;7126;48.458;7.930;2022-12-07T04:41:29;4.50;99.90
14099;DHT22;7126;48.458;7.930;2022-12-07T04:44:01;4.60;99.90
14099;DHT22;7126;48.458;7.930;2022-12-07T04:46:28;4.60;99.90
14099;DHT22;7126;48.458;7.930;2022-12-07T04:48:54;4.60;99.90
14099;DHT22;7126;48.458;7.930;2022-12-07T04:51:22;4.70;99.90
14099;DHT22;7126;48.458;7.930;2022-12-07T04:53:48;4.70;99.90
14099;DHT22;7126;48.458;7.930;2022-12-07T04:56:15;4.70;99.90
14099;DHT22;7126;48.458;7.930;2022-12-07T04:58:42;4.80;99.90
14099;DHT22;7126;48.458;7.930;2022-12-07T05:01:08;4.80;99.90
14099;DHT22;7126;48.458;7.930;2022-12-07T05:03:36;4.80;99.90
14099;DHT22;7126;48.458;7.930;2022-12-07T05:06:02;4.60;99.90
14099;DHT22;7126;48.458;7.930;2022-12-07T05:08:27;4.60;99.90
14099;DHT22;7126;48.458;7.930;2022-12-07T05:10:53;4.50;99.90
14099;DHT22;7126;48.458;7.930;2022-12-07T05:13:19;4.50;99.90
14099;DHT22;7126;48.458;7.930;2022-12-07T05:15:44;4.50;99.90
14099;DHT22;7126;48.458;7.930;2022-12-07T05:18:11;4.40;99.90
14099;DHT22;7126;48.458;7.930;2022-12-07T05:20:40;4.40;99.90
14099;DHT22;7126;48.458;7.930;2022-12-07T05:23:06;4.40;99.90
14099;DHT22;7126;48.458;7.930;2022-12-07T05:25:31;4.30;99.90
14099;DHT22;7126;48.458;7.930;2022-12-07T05:27:57;4.30;99.90
14099;DHT22;7126;48.458;7.930;2022-12-07T05:30:24;4.30;99.90
14099;DHT22;7126;48.458;7.930;2022-12-07T05:32:50;4.20;99.90
14099;DHT22;7126;48.458;7.930;2022-12-07T05:35:16;4.20;99.90
14099;DHT22;7126;48.458;7.930;2022-12-07T05:37:42;4.20;99.90
14099;DHT22;7126;48.458;7.930;2022-12-07T05:40:08;4.20;99.90
14099;DHT22;7126;48.458;7.930;2022-12-07T05:42:34;4.20;99.90
14099;DHT22;7126;48.458;7.930;2022-12-07T05:45:00;4.20;99.90
14099;DHT22;7126;48.458;7.930;2022-12-07T05:47:25;4.20;99.90
14099;DHT22;7126;48.458;7.930;2022-12-07T05:49:51;4.10;99.90
14099;DHT22;7126;48.458;7.930;2022-12-07T05:52:16;4.20;99.90
14099;DHT22;7126;48.458;7.930;2022-12-07T05:54:42;4.10;99.90
14099;DHT22;7126;48.458;7.930;2022-12-07T05:57:08;4.10;99.90
14099;DHT22;7126;48.458;7.930;2022-12-07T05:59:33;4.00;99.90
14099;DHT22;7126;48.458;7.930;2022-12-07T06:02:01;3.90;99.90
14099;DHT22;7126;48.458;7.930;2022-12-07T06:04:30;4.00;99.90
14099;DHT22;7126;48.458;7.930;2022-12-07T06:06:56;4.00;99.90
14099;DHT22;7126;48.458;7.930;2022-12-07T06:09:23;4.00;99.90
14099;DHT22;7126;48.458;7.930;2022-12-07T06:11:50;3.90;99.90
14099;DHT22;7126;48.458;7.930;2022-12-07T06:14:34;4.00;99.90
14099;DHT22;7126;48.458;7.930;2022-12-07T06:16:59;4.00;99.90
14099;DHT22;7126;48.458;7.930;2022-12-07T06:19:25;3.90;99.90
14099;DHT22;7126;48.458;7.930;2022-12-07T06:21:51;3.90;99.90
14099;DHT22;7126;48.458;7.930;2022-12-07T06:24:17;3.90;99.90
14099;DHT22;7126;48.458;7.930;2022-12-07T06:26:43;3.90;99.90
14099;DHT22;7126;48.458;7.930;2022-12-07T06:29:08;3.80;99.90
14099;DHT22;7126;48.458;7.930;2022-12-07T06:31:35;3.80;99.90
14099;DHT22;7126;48.458;7.930;2022-12-07T06:34:03;3.80;99.90
14099;DHT22;7126;48.458;7.930;2022-12-07T06:36:29;3.80;99.90
14099;DHT22;7126;48.458;7.930;2022-12-07T06:38:55;3.80;99.90
14099;DHT22;7126;48.458;7.930;2022-12-07T06:41:21;3.80;99.90
14099;DHT22;7126;48.458;7.930;2022-12-07T06:43:46;3.70;99.90
14099;DHT22;7126;48.458;7.930;2022-12-07T06:46:13;3.70;99.90
14099;DHT22;7126;48.458;7.930;2022-12-07T06:48:39;3.60;99.90
14099;DHT22;7126;48.458;7.930;2022-12-07T06:51:05;3.60;99.90
14099;DHT22;7126;48.458;7.930;2022-12-07T06:53:30;3.50;99.90
14099;DHT22;7126;48.458;7.930;2022-12-07T06:55:56;3.50;99.90
14099;DHT22;7126;48.458;7.930;2022-12-07T06:58:21;3.50;99.90
14099;DHT22;7126;48.458;7.930;2022-12-07T07:00:48;3.40;99.90
14099;DHT22;7126;48.458;7.930;2022-12-07T07:03:14;3.50;99.90
14099;DHT22;7126;48.458;7.930;2022-12-07T07:05:41;3.50;99.90
14099;DHT22;7126;48.458;7.930;2022-12-07T07:08:06;3.60;99.90
14099;DHT22;7126;48.458;7.930;2022-12-07T07:10:32;3.60;99.90
14099;DHT22;7126;48.458;7.930;2022-12-07T07:12:57;3.60;99.90
14099;DHT22;7126;48.458;7.930;2022-12-07T07:15:23;3.60;99.90
14099;DHT22;7126;48.458;7.930;2022-12-07T07:17:48;3.60;99.90
14099;DHT22;7126;48.458;7.930;2022-12-07T07:20:14;3.60;99.90
14099;DHT22;7126;48.458;7.930;2022-12-07T07:22:40;3.70;99.90
14099;DHT22;7126;48.458;7.930;2022-12-07T07:25:05;3.60;99.90
14099;DHT22;7126;48.458;7.930;2022-12-07T07:27:31;3.60;99.90
14099;DHT22;7126;48.458;7.930;2022-12-07T07:29:57;3.60;99.90
14099;DHT22;7126;48.458;7.930;2022-12-07T07:32:22;3.60;99.90
14099;DHT22;7126;48.458;7.930;2022-12-07T07:34:48;3.60;99.90
14099;DHT22;7126;48.458;7.930;2022-12-07T07:37:13;3.60;99.90
14099;DHT22;7126;48.458;7.930;2022-12-07T07:39:39;3.50;99.90
14099;DHT22;7126;48.458;7.930;2022-12-07T07:42:05;3.50;99.90
14099;DHT22;7126;48.458;7.930;2022-12-07T07:44:31;3.50;99.90
14099;DHT22;7126;48.458;7.930;2022-12-07T07:46:56;3.60;99.90
14099;DHT22;7126;48.458;7.930;2022-12-07T07:49:22;3.60;99.90
14099;DHT22;7126;48.458;7.930;2022-12-07T07:51:47;3.60;99.90
14099;DHT22;7126;48.458;7.930;2022-12-07T07:54:13;3.60;99.90
14099;DHT22;7126;48.458;7.930;2022-12-07T07:56:38;3.70;99.90
14099;DHT22;7126;48.458;7.930;2022-12-07T07:59:04;3.70;99.90
14099;DHT22;7126;48.458;7.930;2022-12-07T08:01:29;3.70;99.90
14099;DHT22;7126;48.458;7.930;2022-12-07T08:03:55;3.70;99.90
14099;DHT22;7126;48.458;7.930;2022-12-07T08:06:20;3.80;99.90
14099;DHT22;7126;48.458;7.930;2022-12-07T08:08:46;3.90;99.90
14099;DHT22;7126;48.458;7.930;2022-12-07T08:11:12;3.90;99.90
14099;DHT22;7126;48.458;7.930;2022-12-07T08:13:37;4.00;99.90
14099;DHT22;7126;48.458;7.930;2022-12-07T08:16:04;4.00;99.90
14099;DHT22;7126;48.458;7.930;2022-12-07T08:18:30;4.00;99.90
14099;DHT22;7126;48.458;7.930;2022-12-07T08:21:01;4.00;99.90
14099;DHT22;7126;48.458;7.930;2022-12-07T08:23:27;4.00;99.90
14099;DHT22;7126;48.458;7.930;2022-12-07T08:25:52;4.00;99.90
14099;DHT22;7126;48.458;7.930;2022-12-07T08:28:18;4.10;99.90
14099;DHT22;7126;48.458;7.930;2022-12-07T08:30:44;4.00;99.90
14099;DHT22;7126;48.458;7.930;2022-12-07T08:33:10;4.10;99.90
14099;DHT22;7126;48.458;7.930;2022-12-07T08:35:35;4.10;99.90
14099;DHT22;7126;48.458;7.930;2022-12-07T08:38:02;4.10;99.90
14099;DHT22;7126;48.458;7.930;2022-12-07T08:40:29;4.10;99.90
14099;DHT22;7126;48.458;7.930;2022-12-07T08:42:55;4.10;99.90
14099;DHT22;7126;48.458;7.930;2022-12-07T08:45:21;4.10;99.90
14099;DHT22;7126;48.458;7.930;2022-12-07T08:47:57;4.10;99.90
14099;DHT22;7126;48.458;7.930;2022-12-07T08:50:26;4.20;99.90
14099;DHT22;7126;48.458;7.930;2022-12-07T08:52:54;4.20;99.90
14099;DHT22;7126;48.458;7.930;2022-12-07T08:55:20;4.30;99.90
14099;DHT22;7126;48.458;7.930;2022-12-07T08:57:46;4.30;99.90
14099;DHT22;7126;48.458;7.930;2022-12-07T09:00:12;4.30;99.90
14099;DHT22;7126;48.458;7.930;2022-12-07T09:02:38;4.40;99.90
14099;DHT22;7126;48.458;7.930;2022-12-07T09:05:04;4.40;99.90
14099;DHT22;7126;48.458;7.930;2022-12-07T09:07:32;4.50;99.90
14099;DHT22;7126;48.458;7.930;2022-12-07T09:09:59;4.50;99.90
14099;DHT22;7126;48.458;7.930;2022-12-07T09:12:25;4.60;99.90
14099;DHT22;7126;48.458;7.930;2022-12-07T09:14:50;4.60;99.90
14099;DHT22;7126;48.458;7.930;2022-12-07T09:17:16;4.60;99.90
14099;DHT22;7126;48.458;7.930;2022-12-07T09:19:41;4.70;99.90
14099;DHT22;7126;48.458;7.930;2022-12-07T09:22:07;4.70;99.90
14099;DHT22;7126;48.458;7.930;2022-12-07T09:24:33;4.70;99.90
14099;DHT22;7126;48.458;7.930;2022-12-07T09:26:59;4.80;99.90
14099;DHT22;7126;48.458;7.930;2022-12-07T09:29:24;4.90;99.90
14099;DHT22;7126;48.458;7.930;2022-12-07T09:31:51;5.00;99.90
14099;DHT22;7126;48.458;7.930;2022-12-07T09:34:17;5.00;99.90
14099;DHT22;7126;48.458;7.930;2022-12-07T09:36:42;5.00;99.90
14099;DHT22;7126;48.458;7.930;2022-12-07T09:39:08;5.00;99.90
14099;DHT22;7126;48.458;7.930;2022-12-07T09:41:38;5.10;99.90
14099;DHT22;7126;48.458;7.930;2022-12-07T09:44:09;5.10;99.90
14099;DHT22;7126;48.458;7.930;2022-12-07T09:46:37;5.20;99.90
14099;DHT22;7126;48.458;7.930;2022-12-07T09:49:04;5.30;99.90
14099;DHT22;7126;48.458;7.930;2022-12-07T09:51:31;5.50;99.90
14099;DHT22;7126;48.458;7.930;2022-12-07T09:53:58;5.50;99.90
14099;DHT22;7126;48.458;7.930;2022-12-07T09:56:25;5.60;99.90
14099;DHT22;7126;48.458;7.930;2022-12-07T09:58:57;5.60;99.90
14099;DHT22;7126;48.458;7.930;2022-12-07T10:01:24;5.60;99.90
14099;DHT22;7126;48.458;7.930;2022-12-07T10:03:55;5.60;99.90
14099;DHT22;7126;48.458;7.930;2022-12-07T10:06:23;5.60;99.90
14099;DHT22;7126;48.458;7.930;2022-12-07T10:08:49;5.60;99.90
14099;DHT22;7126;48.458;7.930;2022-12-07T10:11:15;5.60;99.90
14099;DHT22;7126;48.458;7.930;2022-12-07T10:13:50;5.70;99.90
14099;DHT22;7126;48.458;7.930;2022-12-07T10:18:49;5.80;99.90
14099;DHT22;7126;48.458;7.930;2022-12-07T10:21:18;5.90;99.90
14099;DHT22;7126;48.458;7.930;2022-12-07T10:24:24;6.00;99.90
14099;DHT22;7126;48.458;7.930;2022-12-07T10:26:52;6.20;99.90
14099;DHT22;7126;48.458;7.930;2022-12-07T10:29:36;6.30;99.90
14099;DHT22;7126;48.458;7.930;2022-12-07T10:34:40;6.40;99.90
14099;DHT22;7126;48.458;7.930;2022-12-07T10:37:17;6.50;99.90
14099;DHT22;7126;48.458;7.930;2022-12-07T10:44:48;6.20;99.90
14099;DHT22;7126;48.458;7.930;2022-12-07T10:50:02;6.30;99.90
14099;DHT22;7126;48.458;7.930;2022-12-07T10:58:02;6.30;99.90
14099;DHT22;7126;48.458;7.930;2022-12-07T11:00:39;6.40;99.90
14099;DHT22;7126;48.458;7.930;2022-12-07T11:03:36;6.40;99.90
14099;DHT22;7126;48.458;7.930;2022-12-07T11:11:38;6.40;99.90
14099;DHT22;7126;48.458;7.930;2022-12-07T11:14:23;6.40;99.90
14099;DHT22;7126;48.458;7.930;2022-12-07T11:17:03;6.50;99.90
14099;DHT22;7126;48.458;7.930;2022-12-07T11:22:48;6.50;99.90
14099;DHT22;7126;48.458;7.930;2022-12-07T11:33:44;7.00;99.90
14099;DHT22;7126;48.458;7.930;2022-12-07T11:38:57;7.00;99.90
14099;DHT22;7126;48.458;7.930;2022-12-07T11:41:28;6.90;99.90
14099;DHT22;7126;48.458;7.930;2022-12-07T11:52:06;7.10;99.90
14099;DHT22;7126;48.458;7.930;2022-12-07T11:54:40;7.40;99.90
14099;DHT22;7126;48.458;7.930;2022-12-07T11:57:20;7.60;99.90
14099;DHT22;7126;48.458;7.930;2022-12-07T11:59:52;7.60;99.90
14099;DHT22;7126;48.458;7.930;2022-12-07T12:02:26;7.60;99.90
14099;DHT22;7126;48.458;7.930;2022-12-07T12:05:05;7.70;99.90
14099;DHT22;7126;48.458;7.930;2022-12-07T12:07:33;7.70;99.90
14099;DHT22;7126;48.458;7.930;2022-12-07T12:10:14;7.70;99.90
14099;DHT22;7126;48.458;7.930;2022-12-07T12:18:36;7.80;99.90
14099;DHT22;7126;48.458;7.930;2022-12-07T12:21:10;7.90;99.90
14099;DHT22;7126;48.458;7.930;2022-12-07T12:23:40;8.00;99.90
14099;DHT22;7126;48.458;7.930;2022-12-07T12:26:07;8.20;99.90
14099;DHT22;7126;48.458;7.930;2022-12-07T12:33:57;8.00;99.90
14099;DHT22;7126;48.458;7.930;2022-12-07T12:47:00;8.30;99.90
14099;DHT22;7126;48.458;7.930;2022-12-07T12:49:41;8.40;99.90
14099;DHT22;7126;48.458;7.930;2022-12-07T12:57:34;8.40;99.90
14099;DHT22;7126;48.458;7.930;2022-12-07T13:00:18;8.40;99.90
14099;DHT22;7126;48.458;7.930;2022-12-07T13:02:54;8.20;99.90
14099;DHT22;7126;48.458;7.930;2022-12-07T13:05:29;8.10;99.90
14099;DHT22;7126;48.458;7.930;2022-12-07T13:07:58;8.00;99.90
14099;DHT22;7126;48.458;7.930;2022-12-07T13:10:32;8.30;99.90
14099;DHT22;7126;48.458;7.930;2022-12-07T13:18:04;8.80;99.90
14099;DHT22;7126;48.458;7.930;2022-12-07T13:26:36;8.80;99.90
14099;DHT22;7126;48.458;7.930;2022-12-07T13:29:19;8.70;99.90
14099;DHT22;7126;48.458;7.930;2022-12-07T13:31:51;8.60;99.90
14099;DHT22;7126;48.458;7.930;2022-12-07T13:34:33;8.40;99.90
14099;DHT22;7126;48.458;7.930;2022-12-07T13:37:02;8.30;99.90
14099;DHT22;7126;48.458;7.930;2022-12-07T13:39:33;8.10;99.90
14099;DHT22;7126;48.458;7.930;2022-12-07T13:42:12;7.90;99.90
14099;DHT22;7126;48.458;7.930;2022-12-07T13:44:40;7.70;99.90
14099;DHT22;7126;48.458;7.930;2022-12-07T13:47:35;7.60;99.90
14099;DHT22;7126;48.458;7.930;2022-12-07T13:50:15;7.40;99.90
14099;DHT22;7126;48.458;7.930;2022-12-07T13:52:46;7.30;99.90
14099;DHT22;7126;48.458;7.930;2022-12-07T13:55:17;7.30;99.90
14099;DHT22;7126;48.458;7.930;2022-12-07T13:57:45;7.30;99.90
14099;DHT22;7126;48.458;7.930;2022-12-07T14:00:23;7.20;99.90
14099;DHT22;7126;48.458;7.930;2022-12-07T14:02:59;7.10;99.90
14099;DHT22;7126;48.458;7.930;2022-12-07T14:05:30;7.10;99.90
14099;DHT22;7126;48.458;7.930;2022-12-07T14:10:32;7.10;99.90
14099;DHT22;7126;48.458;7.930;2022-12-07T14:13:00;7.10;99.90
14099;DHT22;7126;48.458;7.930;2022-12-07T14:15:29;7.10;99.90
14099;DHT22;7126;48.458;7.930;2022-12-07T14:17:56;7.20;99.90
14099;DHT22;7126;48.458;7.930;2022-12-07T14:22:57;7.20;99.90
14099;DHT22;7126;48.458;7.930;2022-12-07T14:25:25;7.10;99.90
14099;DHT22;7126;48.458;7.930;2022-12-07T14:27:56;7.00;99.90
14099;DHT22;7126;48.458;7.930;2022-12-07T14:30:28;7.00;99.90
14099;DHT22;7126;48.458;7.930;2022-12-07T14:33:01;7.10;99.90
14099;DHT22;7126;48.458;7.930;2022-12-07T14:35:27;7.20;99.90
14099;DHT22;7126;48.458;7.930;2022-12-07T14:37:53;7.20;99.90
14099;DHT22;7126;48.458;7.930;2022-12-07T14:43:01;7.10;99.90
14099;DHT22;7126;48.458;7.930;2022-12-07T14:45:27;7.10;99.90
14099;DHT22;7126;48.458;7.930;2022-12-07T14:47:53;7.10;99.90
14099;DHT22;7126;48.458;7.930;2022-12-07T14:50:19;7.20;99.90
14099;DHT22;7126;48.458;7.930;2022-12-07T14:52:54;7.20;99.90
14099;DHT22;7126;48.458;7.930;2022-12-07T14:55:24;7.20;99.90
14099;DHT22;7126;48.458;7.930;2022-12-07T14:57:50;7.20;99.90
14099;DHT22;7126;48.458;7.930;2022-12-07T15:00:17;7.10;99.90
14099;DHT22;7126;48.458;7.930;2022-12-07T15:02:44;7.10;99.90
14099;DHT22;7126;48.458;7.930;2022-12-07T15:05:10;7.10;99.90
14099;DHT22;7126;48.458;7.930;2022-12-07T15:07:36;7.10;99.90
14099;DHT22;7126;48.458;7.930;2022-12-07T15:10:02;7.10;99.90
14099;DHT22;7126;48.458;7.930;2022-12-07T15:12:28;7.10;99.90
14099;DHT22;7126;48.458;7.930;2022-12-07T15:14:53;7.10;99.90
14099;DHT22;7126;48.458;7.930;2022-12-07T15:17:19;7.10;99.90
14099;DHT22;7126;48.458;7.930;2022-12-07T15:19:44;7.00;99.90
14099;DHT22;7126;48.458;7.930;2022-12-07T15:22:10;7.00;99.90
14099;DHT22;7126;48.458;7.930;2022-12-07T15:24:36;7.10;99.90
14099;DHT22;7126;48.458;7.930;2022-12-07T15:27:03;7.00;99.90
14099;DHT22;7126;48.458;7.930;2022-12-07T15:29:29;7.00;99.90
14099;DHT22;7126;48.458;7.930;2022-12-07T15:31:54;7.00;99.90
14099;DHT22;7126;48.458;7.930;2022-12-07T15:34:21;7.00;99.90
14099;DHT22;7126;48.458;7.930;2022-12-07T15:36:46;7.00;99.90
14099;DHT22;7126;48.458;7.930;2022-12-07T15:39:12;7.00;99.90
14099;DHT22;7126;48.458;7.930;2022-12-07T15:41:38;7.00;99.90
14099;DHT22;7126;48.458;7.930;2022-12-07T15:44:03;7.00;99.90
14099;DHT22;7126;48.458;7.930;2022-12-07T15:46:48;7.00;99.90
14099;DHT22;7126;48.458;7.930;2022-12-07T15:49:16;6.90;99.90
14099;DHT22;7126;48.458;7.930;2022-12-07T15:51:44;6.90;99.90
14099;DHT22;7126;48.458;7.930;2022-12-07T15:54:22;6.80;99.90
14099;DHT22;7126;48.458;7.930;2022-12-07T15:56:48;6.80;99.90
14099;DHT22;7126;48.458;7.930;2022-12-07T15:59:14;6.70;99.90
14099;DHT22;7126;48.458;7.930;2022-12-07T16:01:40;6.70;99.90
14099;DHT22;7126;48.458;7.930;2022-12-07T16:04:05;6.70;99.90
14099;DHT22;7126;48.458;7.930;2022-12-07T16:06:31;6.70;99.90
14099;DHT22;7126;48.458;7.930;2022-12-07T16:08:57;6.70;99.90
14099;DHT22;7126;48.458;7.930;2022-12-07T16:11:22;6.70;99.90
14099;DHT22;7126;48.458;7.930;2022-12-07T16:13:48;6.60;99.90
14099;DHT22;7126;48.458;7.930;2022-12-07T16:16:15;6.70;99.90
14099;DHT22;7126;48.458;7.930;2022-12-07T16:18:42;6.60;99.90
14099;DHT22;7126;48.458;7.930;2022-12-07T16:21:08;6.60;99.90
14099;DHT22;7126;48.458;7.930;2022-12-07T16:23:34;6.60;99.90
14099;DHT22;7126;48.458;7.930;2022-12-07T16:26:07;6.60;99.90
14099;DHT22;7126;48.458;7.930;2022-12-07T16:28:33;6.50;99.90
14099;DHT22;7126;48.458;7.930;2022-12-07T16:31:07;6.50;99.90
14099;DHT22;7126;48.458;7.930;2022-12-07T16:33:37;6.50;99.90
14099;DHT22;7126;48.458;7.930;2022-12-07T16:36:05;6.50;99.90
14099;DHT22;7126;48.458;7.930;2022-12-07T16:38:31;6.50;99.90
14099;DHT22;7126;48.458;7.930;2022-12-07T16:40:57;6.50;99.90
14099;DHT22;7126;48.458;7.930;2022-12-07T16:43:22;6.50;99.90
14099;DHT22;7126;48.458;7.930;2022-12-07T16:45:48;6.50;99.90
14099;DHT22;7126;48.458;7.930;2022-12-07T16:48:15;6.40;99.90
14099;DHT22;7126;48.458;7.930;2022-12-07T16:50:41;6.30;99.90
14099;DHT22;7126;48.458;7.930;2022-12-07T16:53:11;6.30;99.90
14099;DHT22;7126;48.458;7.930;2022-12-07T16:55:43;6.30;99.90
14099;DHT22;7126;48.458;7.930;2022-12-07T16:58:09;6.30;99.90
14099;DHT22;7126;48.458;7.930;2022-12-07T17:00:36;6.30;99.90
14099;DHT22;7126;48.458;7.930;2022-12-07T17:03:03;6.30;99.90
14099;DHT22;7126;48.458;7.930;2022-12-07T17:05:28;6.30;99.90
14099;DHT22;7126;48.458;7.930;2022-12-07T17:07:55;6.40;99.90
14099;DHT22;7126;48.458;7.930;2022-12-07T17:10:21;6.40;99.90
14099;DHT22;7126;48.458;7.930;2022-12-07T17:12:47;6.40;99.90
14099;DHT22;7126;48.458;7.930;2022-12-07T17:15:14;6.50;99.90
14099;DHT22;7126;48.458;7.930;2022-12-07T17:17:56;6.40;99.90
14099;DHT22;7126;48.458;7.930;2022-12-07T17:20:23;6.40;99.90
14099;DHT22;7126;48.458;7.930;2022-12-07T17:22:49;6.40;99.90
14099;DHT22;7126;48.458;7.930;2022-12-07T17:25:15;6.30;99.90
14099;DHT22;7126;48.458;7.930;2022-12-07T17:27:41;6.40;99.90
14099;DHT22;7126;48.458;7.930;2022-12-07T17:30:07;6.40;99.90
14099;DHT22;7126;48.458;7.930;2022-12-07T17:32:33;6.40;99.90
14099;DHT22;7126;48.458;7.930;2022-12-07T17:34:59;6.40;99.90
14099;DHT22;7126;48.458;7.930;2022-12-07T17:37:25;6.40;99.90
14099;DHT22;7126;48.458;7.930;2022-12-07T17:39:52;6.40;99.90
14099;DHT22;7126;48.458;7.930;2022-12-07T17:42:21;6.30;99.90
14099;DHT22;7126;48.458;7.930;2022-12-07T17:45:09;6.30;99.90
14099;DHT22;7126;48.458;7.930;2022-12-07T17:47:36;6.30;99.90
14099;DHT22;7126;48.458;7.930;2022-12-07T17:50:03;6.30;99.90
14099;DHT22;7126;48.458;7.930;2022-12-07T17:52:29;6.30;99.90
14099;DHT22;7126;48.458;7.930;2022-12-07T17:55:13;6.30;99.90
14099;DHT22;7126;48.458;7.930;2022-12-07T17:57:39;6.30;99.90
14099;DHT22;7126;48.458;7.930;2022-12-07T18:00:05;6.30;99.90
14099;DHT22;7126;48.458;7.930;2022-12-07T18:02:31;6.30;99.90
14099;DHT22;7126;48.458;7.930;2022-12-07T18:04:57;6.30;99.90
14099;DHT22;7126;48.458;7.930;2022-12-07T18:07:22;6.30;99.90
14099;DHT22;7126;48.458;7.930;2022-12-07T18:09:48;6.30;99.90
14099;DHT22;7126;48.458;7.930;2022-12-07T18:12:13;6.30;99.90